Portada
METAR-TAF:

METAR-TAF

Aeroports :

Linton-on-Ouse, Anglaterra

latitud: 54-03N, longitud: 001-15W, altitud: 16 m

Observació

L'informe es va fer fa 42 minuts, a les 19:50 UTC
Vent 8 kt del Est
Temperatura 16°C
Humitat 45%
Pressió 1024 hPa
Visibilitat 10 km o més

METAR: EGXU 011950Z AUTO 08008KT 9999 NCD 16/04 Q1024

Hora: 21:32 (20:32 UTC)


TAF: manca

Observacions i pronòstics meteorològics de més de 4000 aeroports (METAR i TAF).

Les estacions disponibles són els punts grocs i vermells al mapa.

Posi el ratolí al punt desitjat per veure el nom de l'estació.

Feu clic per veure les observacions i els pronòstics meteorològics.

Per canviar el mapa: feu clic els botons verds amb una creu de color negre per apropar; al botó verd amb un guió per allunyar la imatge; o en les fletxes verdes per a mapes adjacents.


METAR-TAF: